Time;durP1;ratioP1;P1;durP2;ratioP2;P2;SDS_P1;SDS_P2;PMS_P1;PMS_P2;Temp;Humidity;BMP_temperature;BMP_pressure;BME280_temperature;BME280_humidity;BME280_pressure;Samples;Min_cycle;Max_cycle;Signal;HPM_P1;HPM_P2
2022/09/29 00:01:56;;;;;;;6.97;6.30;;;;;;;-150.27;100.00;61272.81;5235271;28;20137;-74
2022/09/29 00:04:27;;;;;;;11.83;7.43;;;;;;;-150.27;100.00;61272.81;5234617;28;20022;-76
2022/09/29 00:06:58;;;;;;;9.20;6.33;;;;;;;-150.27;100.00;61272.81;5234849;28;20083;-76
2022/09/29 00:09:31;;;;;;;10.50;6.30;;;;;;;-150.27;100.00;61272.81;5233492;28;20025;-74
2022/09/29 00:12:02;;;;;;;9.60;7.00;;;;;;;-150.27;100.00;61272.81;5233369;28;20067;-76
2022/09/29 00:14:33;;;;;;;14.47;6.63;;;;;;;-150.27;100.00;61272.81;5234341;28;20033;-76
2022/09/29 00:17:05;;;;;;;10.33;6.60;;;;;;;-150.27;100.00;61272.81;5227010;28;20176;-76
2022/09/29 00:19:36;;;;;;;9.17;6.70;;;;;;;-150.27;100.00;61272.81;5221926;28;20417;-76
2022/09/29 00:22:07;;;;;;;11.23;6.17;;;;;;;-150.27;100.00;61272.81;5213557;28;20041;-76
2022/09/29 00:24:39;;;;;;;7.93;6.80;;;;;;;-150.27;100.00;61272.81;5212363;28;20029;-76
2022/09/29 00:27:10;;;;;;;8.77;6.37;;;;;;;-150.27;100.00;61272.81;5213019;28;20057;-76
2022/09/29 00:29:41;;;;;;;7.33;6.30;;;;;;;-150.27;100.00;61272.81;5213311;28;20022;-76
2022/09/29 00:32:13;;;;;;;8.87;7.00;;;;;;;-150.27;100.00;61272.81;5229997;28;20042;-76
2022/09/29 00:34:44;;;;;;;9.10;6.77;;;;;;;-150.27;100.00;61272.81;5218740;28;20038;-76
2022/09/29 00:37:16;;;;;;;7.73;6.87;;;;;;;-150.27;100.00;61272.81;5212777;28;20029;-74
2022/09/29 00:39:47;;;;;;;7.93;7.10;;;;;;;-150.27;100.00;61272.81;5212471;28;20100;-76
2022/09/29 00:42:19;;;;;;;9.00;6.47;;;;;;;-150.27;100.00;61272.81;5211826;28;20397;-76
2022/09/29 00:45:11;;;;;;;10.43;7.03;;;;;;;-150.27;100.00;61272.81;5213482;28;20026;-75
2022/09/29 00:47:46;;;;;;;7.70;6.70;;;;;;;-150.27;100.00;61272.81;5213187;28;20030;-76
2022/09/29 00:50:32;;;;;;;13.30;7.70;;;;;;;-150.27;100.00;61272.81;5211134;28;20547;-75
2022/09/29 00:53:10;;;;;;;12.57;6.60;;;;;;;-150.27;100.00;61272.81;5212487;28;20378;-73
2022/09/29 00:55:47;;;;;;;15.97;6.60;;;;;;;-150.27;100.00;61272.81;5212149;28;20065;-76
2022/09/29 00:58:27;;;;;;;7.60;6.63;;;;;;;-150.27;100.00;61272.81;5211577;28;20033;-75
2022/09/29 01:00:59;;;;;;;8.53;7.10;;;;;;;-150.27;100.00;61272.81;5211372;28;20033;-74
2022/09/29 01:03:34;;;;;;;12.10;7.50;;;;;;;-150.27;100.00;61272.81;5211951;28;20121;-76
2022/09/29 01:06:12;;;;;;;9.33;7.20;;;;;;;-150.27;100.00;61272.81;5211367;28;20049;-76
2022/09/29 01:08:54;;;;;;;10.53;7.30;;;;;;;-150.27;100.00;61272.81;5211793;28;20496;-74
2022/09/29 01:11:25;;;;;;;15.37;7.70;;;;;;;-150.27;100.00;61272.81;5212532;28;20030;-74
2022/09/29 01:14:02;;;;;;;8.60;7.23;;;;;;;-150.27;100.00;61272.81;5213527;28;20057;-76
2022/09/29 01:16:36;;;;;;;10.73;6.73;;;;;;;-150.27;100.00;61272.81;5211131;28;20065;-76
2022/09/29 01:19:15;;;;;;;10.77;7.57;;;;;;;-150.27;100.00;61272.81;5210376;28;20396;-76
2022/09/29 01:22:05;;;;;;;9.40;7.07;;;;;;;-150.27;100.00;61272.81;5208477;28;20492;-76
2022/09/29 01:24:52;;;;;;;8.43;7.00;;;;;;;-150.27;100.00;61272.81;5210390;28;20076;-76
2022/09/29 01:27:56;;;;;;;11.47;7.07;;;;;;;-150.27;100.00;61272.81;5211206;28;20053;-76
2022/09/29 01:30:52;;;;;;;8.60;6.63;;;;;;;-150.27;100.00;61272.81;5185438;28;20081;-76
2022/09/29 01:34:10;;;;;;;10.63;7.17;;;;;;;-150.27;100.00;61272.81;5211284;28;20516;-76
2022/09/29 01:36:56;;;;;;;9.67;7.33;;;;;;;-150.27;100.00;61272.81;5183358;28;20042;-76
2022/09/29 01:39:34;;;;;;;9.50;7.20;;;;;;;-150.27;100.00;61272.81;5209581;28;20527;-76
2022/09/29 01:42:21;;;;;;;10.30;7.37;;;;;;;-150.27;100.00;61272.81;5211624;28;20459;-77
2022/09/29 01:45:23;;;;;;;10.33;7.23;;;;;;;-150.27;100.00;61272.81;5211809;28;20026;-76
2022/09/29 01:48:04;;;;;;;10.97;7.37;;;;;;;-150.27;100.00;61272.81;5211413;28;20499;-76
2022/09/29 01:50:44;;;;;;;12.17;7.33;;;;;;;-150.27;100.00;61272.81;5211022;28;20049;-77
2022/09/29 01:53:22;;;;;;;10.07;6.70;;;;;;;-150.27;100.00;61272.81;5211129;28;20112;-76
2022/09/29 01:56:00;;;;;;;10.20;6.70;;;;;;;-150.27;100.00;61272.81;5210422;28;20045;-76
2022/09/29 01:58:40;;;;;;;10.57;6.60;;;;;;;-150.27;100.00;61272.81;5211578;28;20109;-77
2022/09/29 02:01:14;;;;;;;8.73;6.63;;;;;;;-150.27;100.00;61272.81;5210294;28;20038;-77
2022/09/29 02:03:54;;;;;;;11.57;6.97;;;;;;;-150.27;100.00;61272.81;5210980;28;20038;-76
2022/09/29 02:06:42;;;;;;;8.23;7.23;;;;;;;-150.27;100.00;61272.81;5210522;28;20069;-76
2022/09/29 02:09:24;;;;;;;10.83;7.93;;;;;;;-150.27;100.00;61272.81;5209314;28;20075;-76
2022/09/29 02:12:00;;;;;;;9.93;8.67;;;;;;;-150.27;100.00;61272.81;5210953;28;20061;-76
2022/09/29 02:14:44;;;;;;;10.07;7.83;;;;;;;-150.27;100.00;61272.81;5214373;28;20384;-76
2022/09/29 02:17:18;;;;;;;10.65;7.95;;;;;;;-150.27;100.00;61272.81;5215809;28;20065;-76
2022/09/29 02:19:50;;;;;;;;;;;;;;;-150.27;100.00;61272.81;5216722;28;20080;-77
2022/09/29 02:22:22;;;;;;;8.20;6.57;;;;;;;-150.27;100.00;61272.81;5215353;28;19917;-76
2022/09/29 02:24:57;;;;;;;11.47;7.67;;;;;;;-150.27;100.00;61272.81;5213995;28;20022;-76
2022/09/29 02:27:28;;;;;;;12.17;7.30;;;;;;;-150.27;100.00;61272.81;5215508;28;20121;-76
2022/09/29 02:29:59;;;;;;;8.57;7.37;;;;;;;-150.27;100.00;61272.81;5216644;28;20101;-76
2022/09/29 02:32:32;;;;;;;10.50;7.63;;;;;;;-150.27;100.00;61272.81;5215620;28;20102;-75
2022/09/29 02:35:07;;;;;;;12.90;8.80;;;;;;;-150.27;100.00;61272.81;5215594;28;20049;-75
2022/09/29 02:37:38;;;;;;;12.03;8.50;;;;;;;-150.27;100.00;61272.81;5215405;28;20564;-75
2022/09/29 02:40:25;;;;;;;16.40;7.83;;;;;;;-150.27;100.00;61272.81;5213732;28;20038;-75
2022/09/29 02:43:17;;;;;;;9.70;7.83;;;;;;;-150.27;100.00;61272.81;5214418;28;20057;-75
2022/09/29 02:46:05;;;;;;;15.40;7.63;;;;;;;-150.27;100.00;61272.81;5215269;28;20026;-76
2022/09/29 02:49:07;;;;;;;9.13;8.10;;;;;;;-150.27;100.00;61272.81;5214737;28;20072;-76
2022/09/29 02:51:53;;;;;;;9.97;7.70;;;;;;;-150.27;100.00;61272.81;5214466;28;20073;-76
2022/09/29 02:54:43;;;;;;;11.70;8.57;;;;;;;-150.27;100.00;61272.81;5214177;28;20107;-76
2022/09/29 02:57:24;;;;;;;13.03;8.87;;;;;;;-150.27;100.00;61272.81;5215970;28;20099;-76
2022/09/29 03:00:09;;;;;;;13.10;8.37;;;;;;;-150.27;100.00;61272.81;5214972;28;20058;-77
2022/09/29 03:02:42;;;;;;;10.10;7.43;;;;;;;-150.27;100.00;61272.81;5215130;28;20030;-76
2022/09/29 03:05:16;;;;;;;11.97;8.00;;;;;;;-150.27;100.00;61272.81;5220267;28;20075;-76
2022/09/29 03:07:48;;;;;;;10.90;7.80;;;;;;;-150.27;100.00;61272.81;5220243;28;20095;-76
2022/09/29 03:10:19;;;;;;;12.23;7.77;;;;;;;-150.27;100.00;61272.81;5213886;28;20603;-76
2022/09/29 03:12:50;;;;;;;13.90;8.60;;;;;;;-150.27;100.00;61272.81;5214256;28;20029;-76
2022/09/29 03:15:22;;;;;;;9.87;7.63;;;;;;;-150.27;100.00;61272.81;5214844;28;20586;-76
2022/09/29 03:17:56;;;;;;;9.43;7.97;;;;;;;-150.27;100.00;61272.81;5214782;28;20528;-76
2022/09/29 03:20:27;;;;;;;10.65;8.50;;;;;;;-150.27;100.00;61272.81;5214100;28;20026;-77
2022/09/29 03:22:58;;;;;;;9.50;7.30;;;;;;;-150.27;100.00;61272.81;5214871;28;20018;-76
2022/09/29 03:25:30;;;;;;;12.10;8.07;;;;;;;-150.27;100.00;61272.81;5212652;28;20030;-76
2022/09/29 03:28:01;;;;;;;12.00;8.07;;;;;;;-150.27;100.00;61272.81;5214762;28;20021;-77
2022/09/29 03:30:32;;;;;;;10.03;8.20;;;;;;;-150.27;100.00;61272.81;5214774;28;20063;-76
2022/09/29 03:33:03;;;;;;;11.20;7.77;;;;;;;-150.27;100.00;61272.81;5214460;28;20044;-76
2022/09/29 03:35:35;;;;;;;11.30;8.20;;;;;;;-150.27;100.00;61272.81;5214414;28;20088;-76
2022/09/29 03:38:06;;;;;;;11.80;7.70;;;;;;;-150.27;100.00;61272.81;5214346;28;20018;-77
2022/09/29 03:40:37;;;;;;;13.10;8.20;;;;;;;-150.27;100.00;61272.81;5213761;28;20026;-76
2022/09/29 03:43:09;;;;;;;11.00;8.23;;;;;;;-150.27;100.00;61272.81;5214539;28;20021;-75
2022/09/29 03:45:50;;;;;;;13.03;7.93;;;;;;;-150.27;100.00;61272.81;5213562;28;20084;-76
2022/09/29 03:48:23;;;;;;;9.50;8.57;;;;;;;-150.27;100.00;61272.81;5214110;28;20365;-76
2022/09/29 03:50:54;;;;;;;12.90;8.07;;;;;;;-150.27;100.00;61272.81;5213855;28;20096;-76
2022/09/29 03:53:26;;;;;;;10.03;7.97;;;;;;;-150.27;100.00;61272.81;5213747;28;20476;-76
2022/09/29 03:55:57;;;;;;;9.77;7.37;;;;;;;-150.27;100.00;61272.81;5213979;28;20366;-74
2022/09/29 03:58:29;;;;;;;11.77;8.30;;;;;;;-150.27;100.00;61272.81;5213760;28;20029;-76
2022/09/29 04:01:00;;;;;;;11.93;8.47;;;;;;;-150.27;100.00;61272.81;5218377;28;20024;-76
2022/09/29 04:03:32;;;;;;;15.03;8.83;;;;;;;-150.27;100.00;61272.81;5213613;28;20675;-76
2022/09/29 04:06:03;;;;;;;11.57;8.50;;;;;;;-150.27;100.00;61272.81;5213915;28;20036;-76
2022/09/29 04:08:36;;;;;;;11.97;9.23;;;;;;;-150.27;100.00;61272.81;5212975;28;20050;-76
2022/09/29 04:11:07;;;;;;;9.47;8.17;;;;;;;-150.27;100.00;61272.81;5213996;28;20038;-75
2022/09/29 04:13:39;;;;;;;14.80;10.07;;;;;;;-150.27;100.00;61272.81;5213743;28;20040;-74
2022/09/29 04:16:10;;;;;;;9.70;7.87;;;;;;;-150.27;100.00;61272.81;5213976;28;20034;-76
2022/09/29 04:18:41;;;;;;;12.07;8.40;;;;;;;-150.27;100.00;61272.81;5212887;28;20049;-77
2022/09/29 04:21:13;;;;;;;9.60;8.60;;;;;;;-150.27;100.00;61272.81;5213814;28;20026;-76
2022/09/29 04:23:45;;;;;;;11.03;8.43;;;;;;;-150.27;100.00;61272.81;5212595;28;20053;-75
2022/09/29 04:26:19;;;;;;;10.33;7.97;;;;;;;-150.27;100.00;61272.81;5213855;28;20038;-75
2022/09/29 04:28:50;;;;;;;13.67;7.77;;;;;;;-150.27;100.00;61272.81;5213075;28;20030;-75
2022/09/29 04:31:22;;;;;;;11.70;9.80;;;;;;;-150.27;100.00;61272.81;5213627;28;20030;-71
2022/09/29 04:33:53;;;;;;;11.47;8.23;;;;;;;-150.27;100.00;61272.81;5213419;28;20128;-72
2022/09/29 04:36:25;;;;;;;10.17;7.70;;;;;;;-150.27;100.00;61272.81;5211210;28;20040;-72
2022/09/29 04:38:57;;;;;;;11.07;8.87;;;;;;;-150.27;100.00;61272.81;5212707;28;20366;-71
2022/09/29 04:41:32;;;;;;;9.47;7.87;;;;;;;-150.27;100.00;61272.81;5212688;28;20088;-78
2022/09/29 04:44:04;;;;;;;11.10;8.27;;;;;;;-150.27;100.00;61272.81;5213380;28;20093;-74
2022/09/29 04:46:36;;;;;;;9.33;8.07;;;;;;;-150.27;100.00;61272.81;5210079;28;20083;-74
2022/09/29 04:49:07;;;;;;;9.27;8.23;;;;;;;-150.27;100.00;61272.81;5210578;28;20049;-74
2022/09/29 04:51:38;;;;;;;12.00;8.53;;;;;;;-150.27;100.00;61272.81;5213465;28;20412;-75
2022/09/29 04:54:10;;;;;;;14.73;9.13;;;;;;;-150.27;100.00;61272.81;5211956;28;20038;-74
2022/09/29 04:56:41;;;;;;;15.47;8.70;;;;;;;-150.27;100.00;61272.81;5212507;28;20152;-75
2022/09/29 04:59:12;;;;;;;12.63;8.83;;;;;;;-150.27;100.00;61272.81;5213034;28;20052;-75
2022/09/29 05:01:44;;;;;;;12.77;8.30;;;;;;;-150.27;100.00;61272.81;5212702;28;20033;-74
2022/09/29 05:04:15;;;;;;;13.37;8.13;;;;;;;-150.27;100.00;61272.81;5213334;28;20029;-75
2022/09/29 05:06:47;;;;;;;10.13;8.37;;;;;;;-150.27;100.00;61272.81;5212338;28;20081;-75
2022/09/29 05:09:18;;;;;;;10.57;8.77;;;;;;;-150.27;100.00;61272.81;5211248;28;20052;-74
2022/09/29 05:11:50;;;;;;;14.60;9.40;;;;;;;-150.27;100.00;61272.81;5213406;28;20503;-74
2022/09/29 05:14:21;;;;;;;14.90;10.37;;;;;;;-150.27;100.00;61272.81;5212225;28;20080;-75
2022/09/29 05:16:56;;;;;;;13.60;8.97;;;;;;;-150.27;100.00;61272.81;5213039;28;20038;-74
2022/09/29 05:19:28;;;;;;;15.17;10.83;;;;;;;-150.27;100.00;61272.81;5212490;28;20431;-74
2022/09/29 05:21:59;;;;;;;14.40;10.27;;;;;;;-150.27;100.00;61272.81;5210926;28;20030;-74
2022/09/29 05:24:31;;;;;;;14.93;10.10;;;;;;;-150.27;100.00;61272.81;5211405;28;20034;-74
2022/09/29 05:27:02;;;;;;;13.47;9.37;;;;;;;-150.27;100.00;61272.81;5214049;28;20034;-75
2022/09/29 05:29:33;;;;;;;12.50;9.50;;;;;;;-150.27;100.00;61272.81;5221172;28;20021;-74
2022/09/29 05:32:05;;;;;;;14.70;10.83;;;;;;;-150.27;100.00;61272.81;5213030;28;20125;-74
2022/09/29 05:34:36;;;;;;;13.70;9.10;;;;;;;-150.27;100.00;61272.81;5216438;28;20036;-73
2022/09/29 05:37:08;;;;;;;15.77;10.00;;;;;;;-150.27;100.00;61272.81;5233595;28;20457;-74
2022/09/29 05:39:40;;;;;;;13.97;10.03;;;;;;;-150.27;100.00;61272.81;5212072;28;20624;-75
2022/09/29 05:42:12;;;;;;;17.27;10.33;;;;;;;-150.27;100.00;61272.81;5211685;28;20022;-75
2022/09/29 05:44:43;;;;;;;17.40;10.33;;;;;;;-150.27;100.00;61272.81;5212230;28;20045;-74
2022/09/29 05:47:14;;;;;;;16.90;10.77;;;;;;;-150.27;100.00;61272.81;5213205;28;20033;-74
2022/09/29 05:49:45;;;;;;;15.77;10.30;;;;;;;-150.27;100.00;61272.81;5228244;28;20033;-73
2022/09/29 05:52:17;;;;;;;14.77;9.17;;;;;;;-150.27;100.00;61272.81;5215830;28;20396;-74
2022/09/29 05:54:50;;;;;;;12.13;8.97;;;;;;;-150.27;100.00;61272.81;5215524;28;20104;-74
2022/09/29 05:57:21;;;;;;;11.83;10.07;;;;;;;-150.27;100.00;61272.81;5214618;28;20028;-73
2022/09/29 05:59:52;;;;;;;13.63;11.23;;;;;;;-150.27;100.00;61272.81;5215980;28;20370;-73
2022/09/29 06:02:23;;;;;;;21.07;9.80;;;;;;;-150.27;100.00;61272.81;5216119;28;20084;-72
2022/09/29 06:04:55;;;;;;;16.57;10.50;;;;;;;-150.27;100.00;61272.81;5216547;28;20113;-73
2022/09/29 06:07:26;;;;;;;13.77;10.97;;;;;;;-150.27;100.00;61272.81;5215720;28;20038;-73
2022/09/29 06:09:57;;;;;;;17.70;10.23;;;;;;;-150.27;100.00;61272.81;5220979;28;20029;-73
2022/09/29 06:12:34;;;;;;;16.07;11.27;;;;;;;-150.27;100.00;61272.81;5214318;28;20029;-73
2022/09/29 06:15:05;;;;;;;20.03;11.90;;;;;;;-150.27;100.00;61272.81;5216315;28;20511;-73
2022/09/29 06:17:37;;;;;;;16.37;11.77;;;;;;;-150.27;100.00;61272.81;5215546;28;20050;-73
2022/09/29 06:20:09;;;;;;;18.97;11.23;;;;;;;-150.27;100.00;61272.81;5214834;28;20026;-72
2022/09/29 06:22:40;;;;;;;20.13;10.83;;;;;;;-150.27;100.00;61272.81;5214729;28;20036;-72
2022/09/29 06:25:11;;;;;;;17.37;13.27;;;;;;;-150.27;100.00;61272.81;5212911;28;20026;-73
2022/09/29 06:27:42;;;;;;;19.63;14.23;;;;;;;-150.27;100.00;61272.81;5214313;28;20022;-73
2022/09/29 06:30:14;;;;;;;18.40;12.60;;;;;;;-150.27;100.00;61272.81;5215658;28;20246;-73
2022/09/29 06:32:45;;;;;;;19.30;11.97;;;;;;;-150.27;100.00;61272.81;5214361;28;20109;-73
2022/09/29 06:38:07;;;;;;;18.60;13.07;;;;;;;-150.27;100.00;61272.81;5214661;28;20073;-72
2022/09/29 06:40:38;;;;;;;23.70;13.40;;;;;;;-150.27;100.00;61272.81;5229164;28;20045;-73
2022/09/29 06:43:11;;;;;;;20.23;13.43;;;;;;;-150.27;100.00;61272.81;5207739;28;21420;-72
2022/09/29 06:45:42;;;;;;;26.10;13.40;;;;;;;-150.27;100.00;61272.81;5211755;28;20022;-72
2022/09/29 06:48:13;;;;;;;21.07;12.80;;;;;;;-150.27;100.00;61272.81;5208933;28;20079;-75
2022/09/29 06:50:45;;;;;;;19.10;14.37;;;;;;;-150.27;100.00;61272.81;5211743;28;20026;-74
2022/09/29 06:53:16;;;;;;;20.40;12.47;;;;;;;-150.27;100.00;61272.81;5210248;28;20034;-74
2022/09/29 06:55:57;;;;;;;20.30;12.77;;;;;;;-150.27;100.00;61272.81;5213587;28;20022;-73
2022/09/29 06:58:28;;;;;;;20.73;14.10;;;;;;;-150.27;100.00;61272.81;5213371;28;20053;-73
2022/09/29 07:01:01;;;;;;;20.50;13.70;;;;;;;-150.27;100.00;61272.81;5213645;28;20068;-72
2022/09/29 07:03:34;;;;;;;17.93;12.63;;;;;;;-150.27;100.00;61272.81;5211044;28;20528;-73
2022/09/29 07:06:08;;;;;;;18.67;13.03;;;;;;;-150.27;100.00;61272.81;5212999;28;20030;-73
2022/09/29 07:08:39;;;;;;;21.25;13.93;;;;;;;-150.27;100.00;61272.81;5211915;28;20038;-74
2022/09/29 07:11:11;;;;;;;17.93;12.83;;;;;;;-150.27;100.00;61272.81;5219435;28;20028;-72
2022/09/29 07:13:42;;;;;;;20.10;13.67;;;;;;;-150.27;100.00;61272.81;5215907;28;20084;-72
2022/09/29 07:16:13;;;;;;;19.13;13.00;;;;;;;-150.27;100.00;61272.81;5213741;28;20072;-72
2022/09/29 07:18:45;;;;;;;25.57;13.63;;;;;;;-150.27;100.00;61272.81;5213164;28;20034;-73
2022/09/29 07:21:17;;;;;;;21.27;14.00;;;;;;;-150.27;100.00;61272.81;5211994;28;20017;-73
2022/09/29 07:23:49;;;;;;;19.37;13.60;;;;;;;-150.27;100.00;61272.81;5210445;28;20424;-72
2022/09/29 07:26:21;;;;;;;22.27;13.90;;;;;;;-150.27;100.00;61272.81;5213775;28;20021;-74
2022/09/29 07:28:52;;;;;;;19.00;12.83;;;;;;;-150.27;100.00;61272.81;5213129;28;20443;-73
2022/09/29 07:31:23;;;;;;;18.77;13.50;;;;;;;-150.27;100.00;61272.81;5211971;28;20033;-74
2022/09/29 07:33:55;;;;;;;17.90;13.50;;;;;;;-150.27;100.00;61272.81;5210323;28;20045;-73
2022/09/29 07:36:27;;;;;;;14.13;12.67;;;;;;;-150.27;100.00;61272.81;5213518;28;20034;-74
2022/09/29 07:38:58;;;;;;;17.50;14.30;;;;;;;-150.27;100.00;61272.81;5213157;28;20057;-73
2022/09/29 07:41:29;;;;;;;16.97;13.43;;;;;;;-150.27;100.00;61272.81;5213065;28;20076;-74
2022/09/29 07:44:01;;;;;;;17.13;13.70;;;;;;;-150.27;100.00;61272.81;5212464;28;20034;-73
2022/09/29 07:46:32;;;;;;;17.37;14.20;;;;;;;-150.27;100.00;61272.81;5214729;28;20499;-74
2022/09/29 07:49:04;;;;;;;20.13;13.80;;;;;;;-150.27;100.00;61272.81;5215309;28;20026;-73
2022/09/29 07:51:35;;;;;;;17.40;11.87;;;;;;;-150.27;100.00;61272.81;5213521;28;20477;-73
2022/09/29 07:54:06;;;;;;;15.47;12.07;;;;;;;-150.27;100.00;61272.81;5210912;28;20481;-73
2022/09/29 07:56:38;;;;;;;14.37;11.70;;;;;;;-150.27;100.00;61272.81;5211008;28;20064;-73
2022/09/29 07:59:10;;;;;;;16.37;11.37;;;;;;;-150.27;100.00;61272.81;5211828;28;20025;-72
2022/09/29 08:01:41;;;;;;;14.40;10.90;;;;;;;-150.27;100.00;61272.81;5210919;28;20692;-73
2022/09/29 08:04:12;;;;;;;15.73;10.77;;;;;;;-150.27;100.00;61272.81;5209091;28;20030;-73
2022/09/29 08:06:45;;;;;;;14.90;10.13;;;;;;;-150.27;100.00;61272.81;5211766;28;20053;-73
2022/09/29 08:09:16;;;;;;;17.47;10.10;;;;;;;-150.27;100.00;61272.81;5214671;28;20473;-73
2022/09/29 08:11:47;;;;;;;19.73;9.30;;;;;;;-150.27;100.00;61272.81;5213780;28;20034;-73
2022/09/29 08:14:19;;;;;;;10.33;8.70;;;;;;;-150.27;100.00;61272.81;5209097;28;20025;-74
2022/09/29 08:16:50;;;;;;;14.33;8.60;;;;;;;-150.27;100.00;61272.81;5211350;28;20028;-74
2022/09/29 08:19:21;;;;;;;13.00;8.67;;;;;;;-150.27;100.00;61272.81;5212179;28;20077;-73
2022/09/29 08:21:53;;;;;;;14.00;7.83;;;;;;;-150.27;100.00;61272.81;5213570;28;20030;-72
2022/09/29 08:24:24;;;;;;;13.70;8.57;;;;;;;-150.27;100.00;61272.81;5207605;28;20105;-73
2022/09/29 08:26:56;;;;;;;11.53;8.50;;;;;;;-150.27;100.00;61272.81;5210555;28;20026;-73
2022/09/29 08:29:27;;;;;;;15.60;8.10;;;;;;;-150.27;100.00;61272.81;5210987;28;20022;-73
2022/09/29 08:31:59;;;;;;;13.83;9.10;;;;;;;-150.27;100.00;61272.81;5211919;28;20028;-72
2022/09/29 08:34:30;;;;;;;13.10;8.87;;;;;;;-150.27;100.00;61272.81;5209484;28;20025;-73
2022/09/29 08:37:01;;;;;;;13.87;8.93;;;;;;;-150.27;100.00;61272.81;5212197;28;20022;-72
2022/09/29 08:39:34;;;;;;;13.00;9.23;;;;;;;-150.27;100.00;61272.81;5211155;28;20032;-72
2022/09/29 08:42:29;;;;;;;12.33;9.57;;;;;;;-150.27;100.00;61272.81;5212437;28;20029;-72
2022/09/29 08:45:06;;;;;;;12.47;8.10;;;;;;;-150.27;100.00;61272.81;5205818;28;20032;-73
2022/09/29 08:47:44;;;;;;;12.70;8.17;;;;;;;-150.27;100.00;61272.81;5208816;28;20028;-72
2022/09/29 08:50:30;;;;;;;11.00;8.00;;;;;;;-150.27;100.00;61272.81;5212854;28;20125;-72
2022/09/29 08:53:11;;;;;;;10.57;8.53;;;;;;;-150.27;100.00;61272.81;5209984;28;20040;-72
2022/09/29 08:55:51;;;;;;;14.07;8.33;;;;;;;-150.27;100.00;61272.81;5211114;28;20030;-73
2022/09/29 08:58:23;;;;;;;12.73;7.63;;;;;;;-150.27;100.00;61272.81;5209826;28;20037;-73
2022/09/29 09:01:34;;;;;;;11.43;7.83;;;;;;;-150.27;100.00;61272.81;5212171;28;20022;-72
2022/09/29 09:04:38;;;;;;;14.10;7.80;;;;;;;-150.27;100.00;61272.81;5208769;28;20030;-73
2022/09/29 09:07:23;;;;;;;9.90;7.30;;;;;;;-150.27;100.00;61272.81;5197327;28;20488;-73
2022/09/29 09:10:19;;;;;;;10.60;7.28;;;;;;;-150.27;100.00;61272.81;5211946;28;20045;-73
2022/09/29 09:12:55;;;;;;;11.47;8.03;;;;;;;-150.27;100.00;61272.81;5209844;28;20037;-73
2022/09/29 09:15:39;;;;;;;8.90;7.20;;;;;;;-150.27;100.00;61272.81;5209625;28;20057;-73
2022/09/29 09:19:10;;;;;;;11.50;8.07;;;;;;;-150.27;100.00;61272.81;5212165;28;20096;-73
2022/09/29 09:21:46;;;;;;;11.23;7.57;;;;;;;-150.27;100.00;61272.81;5196895;28;20046;-73
2022/09/29 09:24:33;;;;;;;10.87;7.57;;;;;;;-150.27;100.00;61272.81;5212039;28;20045;-73
2022/09/29 09:27:04;;;;;;;10.17;7.47;;;;;;;-150.27;100.00;61272.81;5200401;28;20025;-72
2022/09/29 09:29:42;;;;;;;11.43;6.77;;;;;;;-150.27;100.00;61272.81;5214096;28;20033;-73
2022/09/29 09:32:24;;;;;;;10.60;6.90;;;;;;;-150.27;100.00;61272.81;5214812;28;20069;-73
2022/09/29 09:35:20;;;;;;;9.55;6.13;;;;;;;-150.27;100.00;61272.81;5213248;28;20079;-73
2022/09/29 09:37:54;;;;;;;7.65;5.57;;;;;;;-150.27;100.00;61272.81;5214545;28;20029;-73
2022/09/29 09:40:30;;;;;;;9.15;5.35;;;;;;;-150.27;100.00;61272.81;5215861;28;20113;-74
2022/09/29 09:43:18;;;;;;;4.95;4.10;;;;;;;-150.27;100.00;61272.81;5213557;28;20065;-74
2022/09/29 09:46:01;;;;;;;5.97;3.97;;;;;;;-150.27;100.00;61272.81;5213320;28;20022;-73
2022/09/29 09:48:40;;;;;;;5.93;3.83;;;;;;;-150.27;100.00;61272.81;5215394;28;20026;-73
2022/09/29 09:51:39;;;;;;;6.70;3.60;;;;;;;-150.27;100.00;61272.81;5215689;28;20025;-73
2022/09/29 09:54:30;;;;;;;5.75;3.65;;;;;;;-150.27;100.00;61272.81;5212233;28;20485;-73
2022/09/29 09:57:09;;;;;;;4.70;3.40;;;;;;;-150.27;100.00;61272.81;5211328;28;20557;-74
2022/09/29 09:59:49;;;;;;;6.63;3.75;;;;;;;-150.27;100.00;61272.81;5214023;28;20030;-73
2022/09/29 10:02:22;;;;;;;4.53;3.85;;;;;;;-150.27;100.00;61272.81;5215479;28;20022;-74
2022/09/29 10:04:55;;;;;;;5.45;4.15;;;;;;;-150.27;100.00;61272.81;5211798;28;20044;-74
2022/09/29 10:07:28;;;;;;;7.95;3.97;;;;;;;-150.27;100.00;61272.81;5213669;28;20054;-74
2022/09/29 10:10:11;;;;;;;3.83;3.28;;;;;;;-150.27;100.00;61272.81;5214124;28;20038;-73
2022/09/29 10:12:44;;;;;;;6.88;4.47;;;;;;;-150.27;100.00;61272.81;5212960;28;20034;-74
2022/09/29 10:15:35;;;;;;;4.55;3.25;;;;;;;-150.27;100.00;61272.81;5213199;28;20025;-74
2022/09/29 10:18:16;;;;;;;5.80;3.17;;;;;;;-150.27;100.00;61272.81;5216405;28;20432;-74
2022/09/29 10:20:48;;;;;;;4.88;2.67;;;;;;;-150.27;100.00;61272.81;5215106;28;20044;-73
2022/09/29 10:23:22;;;;;;;4.22;2.75;;;;;;;-150.27;100.00;61272.81;5211803;28;20030;-73
2022/09/29 10:26:13;;;;;;;3.33;2.22;;;;;;;-150.27;100.00;61272.81;5213544;28;20022;-74
2022/09/29 10:28:58;;;;;;;5.00;2.70;;;;;;;-150.27;100.00;61272.81;5213434;28;20065;-73
2022/09/29 10:31:35;;;;;;;7.85;2.58;;;;;;;-150.27;100.00;61272.81;5212871;28;20014;-74
2022/09/29 10:34:12;;;;;;;4.05;2.97;;;;;;;-150.27;100.00;61272.81;5211273;28;20038;-74
2022/09/29 10:36:53;;;;;;;3.67;2.90;;;;;;;-150.27;100.00;61272.81;5212210;28;20125;-73
2022/09/29 10:39:42;;;;;;;4.80;2.95;;;;;;;-150.27;100.00;61272.81;5212654;28;20745;-73
2022/09/29 10:42:30;;;;;;;5.10;2.30;;;;;;;-150.27;100.00;61272.81;5213947;28;20108;-73
2022/09/29 10:45:14;;;;;;;3.70;2.50;;;;;;;-150.27;100.00;61272.81;5210705;28;20040;-73
2022/09/29 10:48:05;;;;;;;6.88;3.72;;;;;;;-150.27;100.00;61272.81;5213331;28;20622;-75
2022/09/29 10:50:48;;;;;;;7.30;2.85;;;;;;;-150.27;100.00;61272.81;5214179;28;20022;-77
2022/09/29 10:53:42;;;;;;;5.68;3.30;;;;;;;-150.27;100.00;61272.81;5209598;28;21349;-72
2022/09/29 10:56:17;;;;;;;3.10;2.00;;;;;;;-150.27;100.00;61272.81;5211612;28;20029;-72
2022/09/29 10:58:54;;;;;;;3.40;2.40;;;;;;;-150.27;100.00;61272.81;5212815;28;20030;-72
2022/09/29 11:01:30;;;;;;;3.83;1.80;;;;;;;-150.27;100.00;61272.81;5201236;28;20029;-73
2022/09/29 11:04:14;;;;;;;3.43;1.73;;;;;;;-150.27;100.00;61272.81;5212477;28;20110;-72
2022/09/29 11:06:46;;;;;;;3.50;1.58;;;;;;;-150.27;100.00;61272.81;5217974;28;20511;-72
2022/09/29 11:09:18;;;;;;;3.57;1.83;;;;;;;-150.27;100.00;61272.81;5213036;28;20021;-72
2022/09/29 11:11:54;;;;;;;3.20;2.25;;;;;;;-150.27;100.00;61272.81;5213411;28;20064;-72
2022/09/29 11:14:35;;;;;;;2.33;1.70;;;;;;;-150.27;100.00;61272.81;5210618;28;20030;-72
2022/09/29 11:17:26;;;;;;;2.17;1.67;;;;;;;-150.27;100.00;61272.81;5212086;28;20022;-72
2022/09/29 11:20:01;;;;;;;5.03;1.60;;;;;;;-150.27;100.00;61272.81;5212682;28;20045;-71
2022/09/29 11:22:52;;;;;;;5.00;1.70;;;;;;;-150.27;100.00;61272.81;5210968;28;20022;-72
2022/09/29 11:25:26;;;;;;;4.17;2.23;;;;;;;-150.27;100.00;61272.81;5210569;28;20017;-73
2022/09/29 11:28:27;;;;;;;3.80;1.88;;;;;;;-150.27;100.00;61272.81;5212039;28;20057;-72
2022/09/29 11:31:10;;;;;;;6.10;2.77;;;;;;;-150.27;100.00;61272.81;5213918;28;20022;-71
2022/09/29 11:33:45;;;;;;;3.63;1.93;;;;;;;-150.27;100.00;61272.81;5209385;28;20042;-72
2022/09/29 11:36:26;;;;;;;3.90;2.00;;;;;;;-150.27;100.00;61272.81;5212042;28;20052;-71
2022/09/29 11:39:14;;;;;;;3.17;1.60;;;;;;;-150.27;100.00;61272.81;5212810;28;20029;-71
2022/09/29 11:42:00;;;;;;;2.57;1.77;;;;;;;-150.27;100.00;61272.81;5207362;28;20041;-71
2022/09/29 11:44:37;;;;;;;5.67;2.13;;;;;;;-150.27;100.00;61272.81;5208468;28;20026;-72
2022/09/29 11:47:28;;;;;;;3.83;1.80;;;;;;;-150.27;100.00;61272.81;5211796;28;20030;-73